sensor_id;sensor_type;location;lat;lon;timestamp;P1;durP1;ratioP1;P2;durP2;ratioP2
23206;SDS011;11773;52.570;13.052;2022-07-04T00:00:36;0.60;;;0.60;;
23206;SDS011;11773;52.570;13.052;2022-07-04T00:03:05;0.63;;;0.60;;
23206;SDS011;11773;52.570;13.052;2022-07-04T00:05:35;0.40;;;0.40;;
23206;SDS011;11773;52.570;13.052;2022-07-04T00:08:05;0.40;;;0.37;;
23206;SDS011;11773;52.570;13.052;2022-07-04T00:10:34;0.40;;;0.40;;
23206;SDS011;11773;52.570;13.052;2022-07-04T00:13:04;0.50;;;0.50;;
23206;SDS011;11773;52.570;13.052;2022-07-04T00:15:33;0.40;;;0.40;;
23206;SDS011;11773;52.570;13.052;2022-07-04T00:18:03;0.50;;;0.50;;
23206;SDS011;11773;52.570;13.052;2022-07-04T00:20:33;0.50;;;0.50;;
23206;SDS011;11773;52.570;13.052;2022-07-04T00:23:02;0.57;;;0.57;;
23206;SDS011;11773;52.570;13.052;2022-07-04T00:25:32;0.37;;;0.37;;
23206;SDS011;11773;52.570;13.052;2022-07-04T00:28:01;0.43;;;0.43;;
23206;SDS011;11773;52.570;13.052;2022-07-04T00:30:31;0.40;;;0.40;;
23206;SDS011;11773;52.570;13.052;2022-07-04T00:33:01;0.50;;;0.50;;
23206;SDS011;11773;52.570;13.052;2022-07-04T00:35:31;0.40;;;0.40;;
23206;SDS011;11773;52.570;13.052;2022-07-04T00:38:00;0.40;;;0.40;;
23206;SDS011;11773;52.570;13.052;2022-07-04T00:40:30;0.40;;;0.40;;
23206;SDS011;11773;52.570;13.052;2022-07-04T00:43:00;0.57;;;0.57;;
23206;SDS011;11773;52.570;13.052;2022-07-04T00:45:32;0.60;;;0.60;;
23206;SDS011;11773;52.570;13.052;2022-07-04T00:48:01;0.40;;;0.40;;
23206;SDS011;11773;52.570;13.052;2022-07-04T00:50:31;0.47;;;0.47;;
23206;SDS011;11773;52.570;13.052;2022-07-04T00:53:00;0.63;;;0.63;;
23206;SDS011;11773;52.570;13.052;2022-07-04T00:55:30;0.63;;;0.63;;
23206;SDS011;11773;52.570;13.052;2022-07-04T00:58:01;0.47;;;0.47;;
23206;SDS011;11773;52.570;13.052;2022-07-04T01:00:30;0.57;;;0.57;;
23206;SDS011;11773;52.570;13.052;2022-07-04T01:03:00;0.50;;;0.50;;
23206;SDS011;11773;52.570;13.052;2022-07-04T01:05:30;0.50;;;0.50;;
23206;SDS011;11773;52.570;13.052;2022-07-04T01:07:59;0.70;;;0.70;;
23206;SDS011;11773;52.570;13.052;2022-07-04T01:10:30;0.60;;;0.60;;
23206;SDS011;11773;52.570;13.052;2022-07-04T01:13:00;0.50;;;0.50;;
23206;SDS011;11773;52.570;13.052;2022-07-04T01:15:30;0.53;;;0.53;;
23206;SDS011;11773;52.570;13.052;2022-07-04T01:18:00;0.60;;;0.60;;
23206;SDS011;11773;52.570;13.052;2022-07-04T01:23:18;0.60;;;0.60;;
23206;SDS011;11773;52.570;13.052;2022-07-04T01:25:47;1.83;;;0.73;;
23206;SDS011;11773;52.570;13.052;2022-07-04T01:28:21;1.90;;;0.80;;
23206;SDS011;11773;52.570;13.052;2022-07-04T01:30:51;0.47;;;0.47;;
23206;SDS011;11773;52.570;13.052;2022-07-04T01:33:21;0.80;;;0.80;;
23206;SDS011;11773;52.570;13.052;2022-07-04T01:35:51;0.80;;;0.80;;
23206;SDS011;11773;52.570;13.052;2022-07-04T01:38:20;0.70;;;0.70;;
23206;SDS011;11773;52.570;13.052;2022-07-04T01:40:50;0.60;;;0.60;;
23206;SDS011;11773;52.570;13.052;2022-07-04T01:43:20;0.73;;;0.73;;
23206;SDS011;11773;52.570;13.052;2022-07-04T01:45:49;0.83;;;0.80;;
23206;SDS011;11773;52.570;13.052;2022-07-04T01:48:19;0.67;;;0.67;;
23206;SDS011;11773;52.570;13.052;2022-07-04T01:50:48;0.60;;;0.60;;
23206;SDS011;11773;52.570;13.052;2022-07-04T01:53:18;0.60;;;0.60;;
23206;SDS011;11773;52.570;13.052;2022-07-04T01:55:47;0.63;;;0.63;;
23206;SDS011;11773;52.570;13.052;2022-07-04T01:58:17;0.60;;;0.60;;
23206;SDS011;11773;52.570;13.052;2022-07-04T02:00:46;0.87;;;0.87;;
23206;SDS011;11773;52.570;13.052;2022-07-04T02:03:34;0.70;;;0.70;;
23206;SDS011;11773;52.570;13.052;2022-07-04T02:06:04;0.70;;;0.70;;
23206;SDS011;11773;52.570;13.052;2022-07-04T02:08:33;0.67;;;0.67;;
23206;SDS011;11773;52.570;13.052;2022-07-04T02:11:21;0.63;;;0.63;;
23206;SDS011;11773;52.570;13.052;2022-07-04T02:13:50;0.60;;;0.60;;
23206;SDS011;11773;52.570;13.052;2022-07-04T02:16:20;0.50;;;0.50;;
23206;SDS011;11773;52.570;13.052;2022-07-04T02:18:49;0.50;;;0.50;;
23206;SDS011;11773;52.570;13.052;2022-07-04T02:21:19;0.43;;;0.43;;
23206;SDS011;11773;52.570;13.052;2022-07-04T02:23:48;0.50;;;0.50;;
23206;SDS011;11773;52.570;13.052;2022-07-04T02:26:18;0.93;;;0.57;;
23206;SDS011;11773;52.570;13.052;2022-07-04T02:28:47;0.70;;;0.70;;
23206;SDS011;11773;52.570;13.052;2022-07-04T02:31:17;0.67;;;0.67;;
23206;SDS011;11773;52.570;13.052;2022-07-04T02:33:46;0.80;;;0.80;;
23206;SDS011;11773;52.570;13.052;2022-07-04T02:36:16;0.70;;;0.70;;
23206;SDS011;11773;52.570;13.052;2022-07-04T02:38:45;0.47;;;0.47;;
23206;SDS011;11773;52.570;13.052;2022-07-04T02:41:15;0.70;;;0.70;;
23206;SDS011;11773;52.570;13.052;2022-07-04T02:43:44;0.70;;;0.70;;
23206;SDS011;11773;52.570;13.052;2022-07-04T02:46:14;0.60;;;0.60;;
23206;SDS011;11773;52.570;13.052;2022-07-04T02:48:43;0.60;;;0.60;;
23206;SDS011;11773;52.570;13.052;2022-07-04T02:51:13;0.57;;;0.57;;
23206;SDS011;11773;52.570;13.052;2022-07-04T02:53:43;0.83;;;0.83;;
23206;SDS011;11773;52.570;13.052;2022-07-04T02:56:12;0.80;;;0.80;;
23206;SDS011;11773;52.570;13.052;2022-07-04T02:58:42;0.77;;;0.77;;
23206;SDS011;11773;52.570;13.052;2022-07-04T03:01:11;0.53;;;0.53;;
23206;SDS011;11773;52.570;13.052;2022-07-04T03:03:41;0.60;;;0.60;;
23206;SDS011;11773;52.570;13.052;2022-07-04T03:06:11;0.57;;;0.57;;
23206;SDS011;11773;52.570;13.052;2022-07-04T03:08:41;0.57;;;0.57;;
23206;SDS011;11773;52.570;13.052;2022-07-04T03:11:11;0.60;;;0.60;;
23206;SDS011;11773;52.570;13.052;2022-07-04T03:13:41;0.60;;;0.60;;
23206;SDS011;11773;52.570;13.052;2022-07-04T03:16:10;0.60;;;0.60;;
23206;SDS011;11773;52.570;13.052;2022-07-04T03:18:40;0.77;;;0.77;;
23206;SDS011;11773;52.570;13.052;2022-07-04T03:21:09;0.70;;;0.70;;
23206;SDS011;11773;52.570;13.052;2022-07-04T03:23:39;0.67;;;0.67;;
23206;SDS011;11773;52.570;13.052;2022-07-04T03:26:08;0.90;;;0.90;;
23206;SDS011;11773;52.570;13.052;2022-07-04T03:28:38;1.00;;;0.90;;
23206;SDS011;11773;52.570;13.052;2022-07-04T03:31:09;0.80;;;0.80;;
23206;SDS011;11773;52.570;13.052;2022-07-04T03:33:39;0.70;;;0.70;;
23206;SDS011;11773;52.570;13.052;2022-07-04T03:36:08;0.70;;;0.70;;
23206;SDS011;11773;52.570;13.052;2022-07-04T03:38:38;0.50;;;0.50;;
23206;SDS011;11773;52.570;13.052;2022-07-04T03:41:07;0.70;;;0.70;;
23206;SDS011;11773;52.570;13.052;2022-07-04T03:43:37;0.90;;;0.90;;
23206;SDS011;11773;52.570;13.052;2022-07-04T03:46:07;0.80;;;0.80;;
23206;SDS011;11773;52.570;13.052;2022-07-04T03:48:37;1.03;;;0.80;;
23206;SDS011;11773;52.570;13.052;2022-07-04T03:51:07;0.70;;;0.70;;
23206;SDS011;11773;52.570;13.052;2022-07-04T03:53:38;0.50;;;0.50;;
23206;SDS011;11773;52.570;13.052;2022-07-04T03:56:07;1.13;;;0.90;;
23206;SDS011;11773;52.570;13.052;2022-07-04T03:58:37;0.80;;;0.80;;
23206;SDS011;11773;52.570;13.052;2022-07-04T04:01:09;1.13;;;0.83;;
23206;SDS011;11773;52.570;13.052;2022-07-04T04:03:38;0.97;;;0.97;;
23206;SDS011;11773;52.570;13.052;2022-07-04T04:06:26;0.80;;;0.80;;
23206;SDS011;11773;52.570;13.052;2022-07-04T04:08:56;0.83;;;0.83;;
23206;SDS011;11773;52.570;13.052;2022-07-04T04:11:25;0.57;;;0.57;;
23206;SDS011;11773;52.570;13.052;2022-07-04T04:13:55;0.87;;;0.87;;
23206;SDS011;11773;52.570;13.052;2022-07-04T04:16:24;0.60;;;0.60;;
23206;SDS011;11773;52.570;13.052;2022-07-04T04:18:54;0.93;;;0.93;;
23206;SDS011;11773;52.570;13.052;2022-07-04T04:21:24;0.70;;;0.70;;
23206;SDS011;11773;52.570;13.052;2022-07-04T04:23:53;0.77;;;0.77;;
23206;SDS011;11773;52.570;13.052;2022-07-04T04:26:23;0.63;;;0.63;;
23206;SDS011;11773;52.570;13.052;2022-07-04T04:28:52;0.60;;;0.60;;
23206;SDS011;11773;52.570;13.052;2022-07-04T04:31:22;0.80;;;0.80;;
23206;SDS011;11773;52.570;13.052;2022-07-04T04:33:52;0.73;;;0.73;;
23206;SDS011;11773;52.570;13.052;2022-07-04T04:36:22;0.67;;;0.67;;
23206;SDS011;11773;52.570;13.052;2022-07-04T04:38:51;0.50;;;0.50;;
23206;SDS011;11773;52.570;13.052;2022-07-04T04:41:21;0.60;;;0.60;;
23206;SDS011;11773;52.570;13.052;2022-07-04T04:43:50;0.70;;;0.70;;
23206;SDS011;11773;52.570;13.052;2022-07-04T04:46:20;0.90;;;0.90;;
23206;SDS011;11773;52.570;13.052;2022-07-04T04:48:50;0.70;;;0.70;;
23206;SDS011;11773;52.570;13.052;2022-07-04T04:51:19;0.70;;;0.70;;
23206;SDS011;11773;52.570;13.052;2022-07-04T04:53:49;0.77;;;0.77;;
23206;SDS011;11773;52.570;13.052;2022-07-04T04:56:18;1.23;;;0.80;;
23206;SDS011;11773;52.570;13.052;2022-07-04T04:58:48;0.60;;;0.60;;
23206;SDS011;11773;52.570;13.052;2022-07-04T05:01:18;0.60;;;0.60;;
23206;SDS011;11773;52.570;13.052;2022-07-04T05:03:49;0.73;;;0.73;;
23206;SDS011;11773;52.570;13.052;2022-07-04T05:06:18;0.80;;;0.80;;
23206;SDS011;11773;52.570;13.052;2022-07-04T05:08:48;0.60;;;0.60;;
23206;SDS011;11773;52.570;13.052;2022-07-04T05:11:17;0.50;;;0.50;;
23206;SDS011;11773;52.570;13.052;2022-07-04T05:13:47;0.43;;;0.43;;
23206;SDS011;11773;52.570;13.052;2022-07-04T05:16:17;0.70;;;0.70;;
23206;SDS011;11773;52.570;13.052;2022-07-04T05:18:46;1.40;;;1.30;;
23206;SDS011;11773;52.570;13.052;2022-07-04T05:21:16;1.30;;;1.20;;
23206;SDS011;11773;52.570;13.052;2022-07-04T05:23:45;0.70;;;0.70;;
23206;SDS011;11773;52.570;13.052;2022-07-04T05:26:15;0.93;;;0.90;;
23206;SDS011;11773;52.570;13.052;2022-07-04T05:28:44;1.07;;;0.80;;
23206;SDS011;11773;52.570;13.052;2022-07-04T05:31:14;0.70;;;0.70;;
23206;SDS011;11773;52.570;13.052;2022-07-04T05:33:44;1.00;;;0.77;;
23206;SDS011;11773;52.570;13.052;2022-07-04T05:36:13;1.07;;;0.80;;
23206;SDS011;11773;52.570;13.052;2022-07-04T05:38:43;1.10;;;1.00;;
23206;SDS011;11773;52.570;13.052;2022-07-04T05:41:12;0.70;;;0.70;;
23206;SDS011;11773;52.570;13.052;2022-07-04T05:43:42;0.67;;;0.67;;
23206;SDS011;11773;52.570;13.052;2022-07-04T05:46:12;0.60;;;0.60;;
23206;SDS011;11773;52.570;13.052;2022-07-04T05:48:41;1.03;;;0.70;;
23206;SDS011;11773;52.570;13.052;2022-07-04T05:51:11;0.70;;;0.70;;
23206;SDS011;11773;52.570;13.052;2022-07-04T05:53:40;0.60;;;0.60;;
23206;SDS011;11773;52.570;13.052;2022-07-04T05:56:10;0.60;;;0.60;;
23206;SDS011;11773;52.570;13.052;2022-07-04T05:58:40;0.60;;;0.60;;
23206;SDS011;11773;52.570;13.052;2022-07-04T06:01:09;0.93;;;0.80;;
23206;SDS011;11773;52.570;13.052;2022-07-04T06:03:39;1.00;;;1.00;;
23206;SDS011;11773;52.570;13.052;2022-07-04T06:06:08;0.83;;;0.83;;
23206;SDS011;11773;52.570;13.052;2022-07-04T06:08:38;0.70;;;0.70;;
23206;SDS011;11773;52.570;13.052;2022-07-04T06:11:07;0.70;;;0.70;;
23206;SDS011;11773;52.570;13.052;2022-07-04T06:13:37;0.80;;;0.80;;
23206;SDS011;11773;52.570;13.052;2022-07-04T06:16:06;0.50;;;0.50;;
23206;SDS011;11773;52.570;13.052;2022-07-04T06:18:36;0.90;;;0.70;;
23206;SDS011;11773;52.570;13.052;2022-07-04T06:21:05;0.77;;;0.60;;
23206;SDS011;11773;52.570;13.052;2022-07-04T06:23:35;0.40;;;0.40;;
23206;SDS011;11773;52.570;13.052;2022-07-04T06:26:05;0.80;;;0.80;;
23206;SDS011;11773;52.570;13.052;2022-07-04T06:28:34;0.70;;;0.70;;
23206;SDS011;11773;52.570;13.052;2022-07-04T06:31:05;1.00;;;0.87;;
23206;SDS011;11773;52.570;13.052;2022-07-04T06:33:36;0.70;;;0.60;;
23206;SDS011;11773;52.570;13.052;2022-07-04T06:36:07;0.50;;;0.50;;
23206;SDS011;11773;52.570;13.052;2022-07-04T06:38:36;0.50;;;0.50;;
23206;SDS011;11773;52.570;13.052;2022-07-04T06:41:06;1.30;;;1.20;;
23206;SDS011;11773;52.570;13.052;2022-07-04T06:43:35;0.80;;;0.80;;
23206;SDS011;11773;52.570;13.052;2022-07-04T06:46:05;1.23;;;0.80;;
23206;SDS011;11773;52.570;13.052;2022-07-04T06:48:35;0.50;;;0.50;;
23206;SDS011;11773;52.570;13.052;2022-07-04T06:51:04;0.53;;;0.50;;
23206;SDS011;11773;52.570;13.052;2022-07-04T06:53:35;0.60;;;0.60;;
23206;SDS011;11773;52.570;13.052;2022-07-04T06:56:04;0.70;;;0.70;;
23206;SDS011;11773;52.570;13.052;2022-07-04T06:58:34;1.50;;;0.70;;
23206;SDS011;11773;52.570;13.052;2022-07-04T07:01:03;0.60;;;0.60;;
23206;SDS011;11773;52.570;13.052;2022-07-04T07:03:33;0.50;;;0.50;;
23206;SDS011;11773;52.570;13.052;2022-07-04T07:06:03;0.70;;;0.70;;
23206;SDS011;11773;52.570;13.052;2022-07-04T07:08:32;0.40;;;0.40;;
23206;SDS011;11773;52.570;13.052;2022-07-04T07:11:02;0.70;;;0.70;;
23206;SDS011;11773;52.570;13.052;2022-07-04T07:13:47;0.40;;;0.40;;
23206;SDS011;11773;52.570;13.052;2022-07-04T07:16:14;0.40;;;0.40;;
23206;SDS011;11773;52.570;13.052;2022-07-04T07:18:44;0.40;;;0.40;;
23206;SDS011;11773;52.570;13.052;2022-07-04T07:21:16;0.50;;;0.50;;
23206;SDS011;11773;52.570;13.052;2022-07-04T07:23:45;0.33;;;0.33;;
23206;SDS011;11773;52.570;13.052;2022-07-04T07:26:16;0.40;;;0.40;;
23206;SDS011;11773;52.570;13.052;2022-07-04T07:28:45;0.50;;;0.50;;
23206;SDS011;11773;52.570;13.052;2022-07-04T07:31:15;0.57;;;0.40;;
23206;SDS011;11773;52.570;13.052;2022-07-04T07:33:45;0.50;;;0.50;;
23206;SDS011;11773;52.570;13.052;2022-07-04T07:36:14;0.70;;;0.57;;
23206;SDS011;11773;52.570;13.052;2022-07-04T07:38:44;0.73;;;0.60;;
23206;SDS011;11773;52.570;13.052;2022-07-04T07:41:13;0.30;;;0.30;;
23206;SDS011;11773;52.570;13.052;2022-07-04T07:43:43;0.60;;;0.60;;
23206;SDS011;11773;52.570;13.052;2022-07-04T07:46:12;0.50;;;0.50;;
23206;SDS011;11773;52.570;13.052;2022-07-04T07:48:42;0.70;;;0.50;;
23206;SDS011;11773;52.570;13.052;2022-07-04T07:51:12;0.40;;;0.40;;
23206;SDS011;11773;52.570;13.052;2022-07-04T07:53:43;0.57;;;0.50;;
23206;SDS011;11773;52.570;13.052;2022-07-04T07:56:14;0.50;;;0.50;;
23206;SDS011;11773;52.570;13.052;2022-07-04T07:58:44;0.50;;;0.50;;
23206;SDS011;11773;52.570;13.052;2022-07-04T08:01:13;1.30;;;0.53;;
23206;SDS011;11773;52.570;13.052;2022-07-04T08:03:43;0.63;;;0.63;;
23206;SDS011;11773;52.570;13.052;2022-07-04T08:06:31;1.17;;;0.60;;
23206;SDS011;11773;52.570;13.052;2022-07-04T08:09:01;0.83;;;0.63;;
23206;SDS011;11773;52.570;13.052;2022-07-04T08:11:32;0.77;;;0.50;;
23206;SDS011;11773;52.570;13.052;2022-07-04T08:14:01;0.40;;;0.40;;
23206;SDS011;11773;52.570;13.052;2022-07-04T08:16:33;0.40;;;0.40;;
23206;SDS011;11773;52.570;13.052;2022-07-04T08:19:04;1.07;;;0.60;;
23206;SDS011;11773;52.570;13.052;2022-07-04T08:21:34;0.83;;;0.60;;
23206;SDS011;11773;52.570;13.052;2022-07-04T08:24:05;0.40;;;0.40;;
23206;SDS011;11773;52.570;13.052;2022-07-04T08:26:36;0.50;;;0.50;;
23206;SDS011;11773;52.570;13.052;2022-07-04T08:29:06;0.60;;;0.50;;
23206;SDS011;11773;52.570;13.052;2022-07-04T08:31:36;0.70;;;0.50;;
23206;SDS011;11773;52.570;13.052;2022-07-04T08:34:07;0.50;;;0.50;;
23206;SDS011;11773;52.570;13.052;2022-07-04T08:36:37;0.40;;;0.40;;
23206;SDS011;11773;52.570;13.052;2022-07-04T08:39:07;0.60;;;0.60;;
23206;SDS011;11773;52.570;13.052;2022-07-04T08:41:37;0.40;;;0.40;;
23206;SDS011;11773;52.570;13.052;2022-07-04T08:44:09;0.30;;;0.30;;
23206;SDS011;11773;52.570;13.052;2022-07-04T08:46:40;0.30;;;0.30;;
23206;SDS011;11773;52.570;13.052;2022-07-04T08:49:14;0.40;;;0.40;;
23206;SDS011;11773;52.570;13.052;2022-07-04T08:51:52;1.13;;;0.50;;
23206;SDS011;11773;52.570;13.052;2022-07-04T08:54:22;0.40;;;0.40;;
23206;SDS011;11773;52.570;13.052;2022-07-04T08:57:11;0.47;;;0.47;;
23206;SDS011;11773;52.570;13.052;2022-07-04T08:59:59;0.40;;;0.40;;
23206;SDS011;11773;52.570;13.052;2022-07-04T09:02:29;0.57;;;0.57;;
23206;SDS011;11773;52.570;13.052;2022-07-04T09:05:01;0.53;;;0.53;;
23206;SDS011;11773;52.570;13.052;2022-07-04T09:07:33;0.40;;;0.40;;
23206;SDS011;11773;52.570;13.052;2022-07-04T09:10:02;0.33;;;0.33;;
23206;SDS011;11773;52.570;13.052;2022-07-04T09:12:33;0.60;;;0.60;;
23206;SDS011;11773;52.570;13.052;2022-07-04T09:15:04;0.50;;;0.50;;
23206;SDS011;11773;52.570;13.052;2022-07-04T09:17:35;0.43;;;0.43;;
23206;SDS011;11773;52.570;13.052;2022-07-04T09:20:23;0.37;;;0.37;;
23206;SDS011;11773;52.570;13.052;2022-07-04T09:22:50;0.30;;;0.30;;
23206;SDS011;11773;52.570;13.052;2022-07-04T09:25:22;0.53;;;0.50;;
23206;SDS011;11773;52.570;13.052;2022-07-04T09:27:54;0.40;;;0.40;;
23206;SDS011;11773;52.570;13.052;2022-07-04T09:30:25;0.30;;;0.30;;
23206;SDS011;11773;52.570;13.052;2022-07-04T09:32:56;0.37;;;0.37;;
23206;SDS011;11773;52.570;13.052;2022-07-04T09:35:30;0.40;;;0.40;;
23206;SDS011;11773;52.570;13.052;2022-07-04T09:38:03;0.73;;;0.53;;
23206;SDS011;11773;52.570;13.052;2022-07-04T09:40:33;0.30;;;0.30;;
23206;SDS011;11773;52.570;13.052;2022-07-04T09:43:11;0.33;;;0.33;;
23206;SDS011;11773;52.570;13.052;2022-07-04T09:45:52;0.40;;;0.40;;
23206;SDS011;11773;52.570;13.052;2022-07-04T09:48:47;0.40;;;0.40;;
23206;SDS011;11773;52.570;13.052;2022-07-04T09:51:37;0.37;;;0.30;;
23206;SDS011;11773;52.570;13.052;2022-07-04T09:54:20;0.50;;;0.50;;
23206;SDS011;11773;52.570;13.052;2022-07-04T09:57:01;0.30;;;0.30;;
23206;SDS011;11773;52.570;13.052;2022-07-04T09:59:32;0.20;;;0.20;;
23206;SDS011;11773;52.570;13.052;2022-07-04T10:02:08;0.30;;;0.30;;
23206;SDS011;11773;52.570;13.052;2022-07-04T10:04:47;0.30;;;0.30;;
23206;SDS011;11773;52.570;13.052;2022-07-04T10:07:31;0.40;;;0.40;;
23206;SDS011;11773;52.570;13.052;2022-07-04T10:13:05;0.40;;;0.40;;
23206;SDS011;11773;52.570;13.052;2022-07-04T10:15:38;0.50;;;0.50;;
23206;SDS011;11773;52.570;13.052;2022-07-04T10:18:10;0.30;;;0.30;;
23206;SDS011;11773;52.570;13.052;2022-07-04T10:20:41;0.40;;;0.40;;
23206;SDS011;11773;52.570;13.052;2022-07-04T10:23:12;0.60;;;0.60;;
23206;SDS011;11773;52.570;13.052;2022-07-04T10:25:48;0.30;;;0.30;;
23206;SDS011;11773;52.570;13.052;2022-07-04T10:28:18;0.43;;;0.30;;
23206;SDS011;11773;52.570;13.052;2022-07-04T10:30:56;0.50;;;0.50;;
23206;SDS011;11773;52.570;13.052;2022-07-04T10:33:29;0.43;;;0.43;;
23206;SDS011;11773;52.570;13.052;2022-07-04T10:36:01;0.20;;;0.20;;
23206;SDS011;11773;52.570;13.052;2022-07-04T10:38:46;0.30;;;0.30;;
23206;SDS011;11773;52.570;13.052;2022-07-04T10:41:29;0.30;;;0.30;;
23206;SDS011;11773;52.570;13.052;2022-07-04T10:44:00;1.60;;;0.40;;
23206;SDS011;11773;52.570;13.052;2022-07-04T10:46:58;0.30;;;0.30;;
23206;SDS011;11773;52.570;13.052;2022-07-04T10:49:18;0.40;;;0.40;;
23206;SDS011;11773;52.570;13.052;2022-07-04T10:51:52;0.30;;;0.30;;
23206;SDS011;11773;52.570;13.052;2022-07-04T10:54:31;0.40;;;0.40;;
23206;SDS011;11773;52.570;13.052;2022-07-04T10:57:14;0.50;;;0.40;;
23206;SDS011;11773;52.570;13.052;2022-07-04T11:02:31;0.53;;;0.40;;
23206;SDS011;11773;52.570;13.052;2022-07-04T11:05:03;0.60;;;0.60;;
23206;SDS011;11773;52.570;13.052;2022-07-04T11:18:09;0.23;;;0.23;;
23206;SDS011;11773;52.570;13.052;2022-07-04T11:20:44;0.47;;;0.47;;
23206;SDS011;11773;52.570;13.052;2022-07-04T11:23:15;0.40;;;0.40;;
23206;SDS011;11773;52.570;13.052;2022-07-04T11:25:47;0.40;;;0.40;;
23206;SDS011;11773;52.570;13.052;2022-07-04T11:28:25;0.57;;;0.40;;
23206;SDS011;11773;52.570;13.052;2022-07-04T11:31:00;0.47;;;0.40;;
23206;SDS011;11773;52.570;13.052;2022-07-04T11:33:30;0.40;;;0.40;;
23206;SDS011;11773;52.570;13.052;2022-07-04T11:36:06;0.23;;;0.23;;
23206;SDS011;11773;52.570;13.052;2022-07-04T11:38:44;0.40;;;0.40;;
23206;SDS011;11773;52.570;13.052;2022-07-04T11:41:29;0.50;;;0.50;;
23206;SDS011;11773;52.570;13.052;2022-07-04T11:44:23;0.50;;;0.50;;
23206;SDS011;11773;52.570;13.052;2022-07-04T11:47:23;0.37;;;0.37;;
23206;SDS011;11773;52.570;13.052;2022-07-04T11:50:05;0.30;;;0.30;;
23206;SDS011;11773;52.570;13.052;2022-07-04T11:52:47;0.30;;;0.30;;
23206;SDS011;11773;52.570;13.052;2022-07-04T11:55:21;0.27;;;0.27;;
23206;SDS011;11773;52.570;13.052;2022-07-04T11:57:51;0.20;;;0.20;;
23206;SDS011;11773;52.570;13.052;2022-07-04T12:00:25;0.43;;;0.43;;
23206;SDS011;11773;52.570;13.052;2022-07-04T12:03:02;0.27;;;0.27;;
23206;SDS011;11773;52.570;13.052;2022-07-04T12:05:33;0.37;;;0.37;;
23206;SDS011;11773;52.570;13.052;2022-07-04T12:08:04;0.37;;;0.37;;
23206;SDS011;11773;52.570;13.052;2022-07-04T12:10:36;0.30;;;0.30;;
23206;SDS011;11773;52.570;13.052;2022-07-04T12:13:06;0.30;;;0.30;;
23206;SDS011;11773;52.570;13.052;2022-07-04T12:15:45;0.33;;;0.30;;
23206;SDS011;11773;52.570;13.052;2022-07-04T12:18:21;0.40;;;0.40;;
23206;SDS011;11773;52.570;13.052;2022-07-04T12:21:11;0.50;;;0.50;;
23206;SDS011;11773;52.570;13.052;2022-07-04T12:23:52;0.60;;;0.33;;
23206;SDS011;11773;52.570;13.052;2022-07-04T12:26:25;0.40;;;0.40;;
23206;SDS011;11773;52.570;13.052;2022-07-04T12:28:55;0.40;;;0.40;;
23206;SDS011;11773;52.570;13.052;2022-07-04T12:31:38;0.40;;;0.40;;
23206;SDS011;11773;52.570;13.052;2022-07-04T12:34:14;0.30;;;0.30;;
23206;SDS011;11773;52.570;13.052;2022-07-04T12:36:49;0.40;;;0.40;;
23206;SDS011;11773;52.570;13.052;2022-07-04T12:39:32;0.40;;;0.40;;
23206;SDS011;11773;52.570;13.052;2022-07-04T12:44:44;0.47;;;0.47;;
23206;SDS011;11773;52.570;13.052;2022-07-04T12:47:18;0.37;;;0.37;;
23206;SDS011;11773;52.570;13.052;2022-07-04T12:49:50;0.30;;;0.30;;
23206;SDS011;11773;52.570;13.052;2022-07-04T12:52:20;0.37;;;0.37;;
23206;SDS011;11773;52.570;13.052;2022-07-04T12:55:02;0.40;;;0.40;;
23206;SDS011;11773;52.570;13.052;2022-07-04T12:57:39;0.20;;;0.20;;
23206;SDS011;11773;52.570;13.052;2022-07-04T13:00:08;0.33;;;0.33;;
23206;SDS011;11773;52.570;13.052;2022-07-04T13:02:41;0.30;;;0.30;;
23206;SDS011;11773;52.570;13.052;2022-07-04T13:05:10;0.30;;;0.30;;
23206;SDS011;11773;52.570;13.052;2022-07-04T13:07:40;0.30;;;0.30;;
23206;SDS011;11773;52.570;13.052;2022-07-04T13:10:10;0.30;;;0.30;;
23206;SDS011;11773;52.570;13.052;2022-07-04T13:12:39;0.30;;;0.30;;
23206;SDS011;11773;52.570;13.052;2022-07-04T13:15:09;0.40;;;0.40;;
23206;SDS011;11773;52.570;13.052;2022-07-04T13:17:41;0.50;;;0.50;;
23206;SDS011;11773;52.570;13.052;2022-07-04T13:20:10;0.33;;;0.33;;
23206;SDS011;11773;52.570;13.052;2022-07-04T13:22:40;0.40;;;0.40;;
23206;SDS011;11773;52.570;13.052;2022-07-04T13:25:09;0.30;;;0.30;;
23206;SDS011;11773;52.570;13.052;2022-07-04T13:27:39;0.40;;;0.40;;
23206;SDS011;11773;52.570;13.052;2022-07-04T13:30:08;0.50;;;0.50;;
23206;SDS011;11773;52.570;13.052;2022-07-04T13:32:39;0.30;;;0.30;;
23206;SDS011;11773;52.570;13.052;2022-07-04T13:35:09;0.40;;;0.30;;
23206;SDS011;11773;52.570;13.052;2022-07-04T13:37:38;0.40;;;0.40;;
23206;SDS011;11773;52.570;13.052;2022-07-04T13:40:09;0.30;;;0.30;;
23206;SDS011;11773;52.570;13.052;2022-07-04T13:42:39;0.30;;;0.30;;
23206;SDS011;11773;52.570;13.052;2022-07-04T13:45:26;0.30;;;0.30;;
23206;SDS011;11773;52.570;13.052;2022-07-04T13:47:56;0.50;;;0.50;;
23206;SDS011;11773;52.570;13.052;2022-07-04T13:50:27;0.20;;;0.20;;
23206;SDS011;11773;52.570;13.052;2022-07-04T13:52:56;0.30;;;0.30;;
23206;SDS011;11773;52.570;13.052;2022-07-04T13:55:26;0.40;;;0.40;;
23206;SDS011;11773;52.570;13.052;2022-07-04T13:57:56;0.40;;;0.40;;
23206;SDS011;11773;52.570;13.052;2022-07-04T14:00:26;0.23;;;0.23;;
23206;SDS011;11773;52.570;13.052;2022-07-04T14:02:55;0.50;;;0.50;;
23206;SDS011;11773;52.570;13.052;2022-07-04T14:05:25;0.53;;;0.43;;
23206;SDS011;11773;52.570;13.052;2022-07-04T14:07:55;0.40;;;0.40;;
23206;SDS011;11773;52.570;13.052;2022-07-04T14:10:25;0.40;;;0.40;;
23206;SDS011;11773;52.570;13.052;2022-07-04T14:12:54;0.40;;;0.40;;
23206;SDS011;11773;52.570;13.052;2022-07-04T14:15:24;0.37;;;0.37;;
23206;SDS011;11773;52.570;13.052;2022-07-04T14:17:53;0.37;;;0.30;;
23206;SDS011;11773;52.570;13.052;2022-07-04T14:20:23;0.30;;;0.30;;
23206;SDS011;11773;52.570;13.052;2022-07-04T14:22:52;0.37;;;0.37;;
23206;SDS011;11773;52.570;13.052;2022-07-04T14:25:22;0.30;;;0.30;;
23206;SDS011;11773;52.570;13.052;2022-07-04T14:27:51;0.43;;;0.43;;
23206;SDS011;11773;52.570;13.052;2022-07-04T14:30:21;0.50;;;0.33;;
23206;SDS011;11773;52.570;13.052;2022-07-04T14:32:51;0.30;;;0.30;;
23206;SDS011;11773;52.570;13.052;2022-07-04T14:35:20;0.40;;;0.40;;
23206;SDS011;11773;52.570;13.052;2022-07-04T14:37:50;0.30;;;0.30;;
23206;SDS011;11773;52.570;13.052;2022-07-04T14:40:21;0.30;;;0.30;;
23206;SDS011;11773;52.570;13.052;2022-07-04T14:42:50;0.40;;;0.40;;
23206;SDS011;11773;52.570;13.052;2022-07-04T14:45:20;0.30;;;0.30;;
23206;SDS011;11773;52.570;13.052;2022-07-04T14:47:49;0.80;;;0.50;;
23206;SDS011;11773;52.570;13.052;2022-07-04T14:50:19;0.20;;;0.20;;
23206;SDS011;11773;52.570;13.052;2022-07-04T14:52:49;0.40;;;0.33;;
23206;SDS011;11773;52.570;13.052;2022-07-04T14:55:19;0.30;;;0.30;;
23206;SDS011;11773;52.570;13.052;2022-07-04T14:57:48;0.40;;;0.40;;
23206;SDS011;11773;52.570;13.052;2022-07-04T15:00:18;0.50;;;0.40;;
23206;SDS011;11773;52.570;13.052;2022-07-04T15:02:47;0.40;;;0.40;;
23206;SDS011;11773;52.570;13.052;2022-07-04T15:05:17;0.40;;;0.40;;
23206;SDS011;11773;52.570;13.052;2022-07-04T15:07:47;0.30;;;0.30;;
23206;SDS011;11773;52.570;13.052;2022-07-04T15:10:16;0.30;;;0.30;;
23206;SDS011;11773;52.570;13.052;2022-07-04T15:12:46;0.30;;;0.30;;
23206;SDS011;11773;52.570;13.052;2022-07-04T15:15:15;0.43;;;0.40;;
23206;SDS011;11773;52.570;13.052;2022-07-04T15:17:48;0.40;;;0.40;;
23206;SDS011;11773;52.570;13.052;2022-07-04T15:20:18;0.47;;;0.47;;